Weather at Voinjama Airport

Public forecast

Using degrees Celsius for public forecast. Weather courtesy of forecast.io.

Closest aviation weather report (METAR) to Voinjama Airport

Report is more than 6 hours old.

Closest report is Nzérékoré Airport, 70.7 nm (130.9 km) ESE. Retrieved 2020/08/24 18:00 UTC (6 months ago):

GUNZ 241800Z VRB02KT 9999 BKN011 25/23 Q//// NOSIG

Closest aviation forecast (TAF) to Voinjama Airport

Closest forecast is Lungi International Airport, 204.3 nm (378.3 km) W. Retrieved 2021/03/06 12:00 UTC (1 hour ago):

TAF GFLL 061120Z 0612/0718 30011KT 5000 HZ BKN012 TEMPO 0612/616 28008KT 6000 TS BKN013 FEW027CB TEMPO 0706/0710 28006KT 5000 BKN012